Time;durP1;ratioP1;P1;durP2;ratioP2;P2;SDS_P1;SDS_P2;PMS_P1;PMS_P2;Temp;Humidity;BMP_temperature;BMP_pressure;BME280_temperature;BME280_humidity;BME280_pressure;Samples;Min_cycle;Max_cycle;Signal;HPM_P1;HPM_P2
2022/07/09 00:01:18;;;;;;;2.03;1.23;;;;;;;;;;5044372;28;20527;-42
2022/07/09 00:03:44;;;;;;;1.97;1.20;;;;;;;;;;5041792;28;20183;-41
2022/07/09 00:06:10;;;;;;;4.40;1.47;;;;;;;;;;5042574;28;20198;-42
2022/07/09 00:08:36;;;;;;;3.07;1.17;;;;;;;;;;5050047;28;20186;-42
2022/07/09 00:11:02;;;;;;;2.27;1.30;;;;;;;;;;5046424;28;20935;-42
2022/07/09 00:13:28;;;;;;;1.67;1.27;;;;;;;;;;5044624;28;20183;-42
2022/07/09 00:15:54;;;;;;;2.90;1.30;;;;;;;;;;5046078;28;20494;-42
2022/07/09 00:18:20;;;;;;;2.60;1.27;;;;;;;;;;5042611;28;20201;-42
2022/07/09 00:20:47;;;;;;;1.67;1.40;;;;;;;;;;5040478;28;20175;-42
2022/07/09 00:23:13;;;;;;;2.93;1.30;;;;;;;;;;5045631;28;20239;-42
2022/07/09 00:25:39;;;;;;;2.70;1.47;;;;;;;;;;5045070;28;20756;-42
2022/07/09 00:28:05;;;;;;;1.60;1.20;;;;;;;;;;5046556;28;20333;-43
2022/07/09 00:30:31;;;;;;;1.70;1.17;;;;;;;;;;5045817;28;20182;-41
2022/07/09 00:32:57;;;;;;;3.70;1.33;;;;;;;;;;5041863;28;20213;-41
2022/07/09 00:35:24;;;;;;;2.00;1.20;;;;;;;;;;5041879;28;20926;-40
2022/07/09 00:37:50;;;;;;;2.47;1.30;;;;;;;;;;5045069;28;20185;-41
2022/07/09 00:40:16;;;;;;;2.67;1.30;;;;;;;;;;5047083;28;20214;-40
2022/07/09 00:42:42;;;;;;;1.63;1.20;;;;;;;;;;5046443;28;20213;-41
2022/07/09 00:45:08;;;;;;;3.73;1.30;;;;;;;;;;5045531;28;20368;-40
2022/07/09 00:47:34;;;;;;;2.43;1.27;;;;;;;;;;5044076;28;20657;-41
2022/07/09 00:50:01;;;;;;;1.50;1.30;;;;;;;;;;5045591;28;20190;-41
2022/07/09 00:52:27;;;;;;;3.50;1.30;;;;;;;;;;5048631;28;20615;-40
2022/07/09 00:54:55;;;;;;;2.83;1.50;;;;;;;;;;5045946;28;20900;-41
2022/07/09 00:57:22;;;;;;;3.00;1.67;;;;;;;;;;5046771;28;21021;-42
2022/07/09 00:59:48;;;;;;;2.33;1.73;;;;;;;;;;5045569;28;20590;-41
2022/07/09 01:02:14;;;;;;;1.30;1.20;;;;;;;;;;5050633;28;20556;-40
2022/07/09 01:04:41;;;;;;;1.30;1.20;;;;;;;;;;5042146;28;21032;-40
2022/07/09 01:07:07;;;;;;;1.20;1.10;;;;;;;;;;5044992;28;20175;-41
2022/07/09 01:09:33;;;;;;;1.47;1.23;;;;;;;;;;5047803;28;20240;-41
2022/07/09 01:11:59;;;;;;;2.50;1.30;;;;;;;;;;5045942;28;20563;-41
2022/07/09 01:14:25;;;;;;;3.87;1.50;;;;;;;;;;5050068;28;20240;-41
2022/07/09 01:17:02;;;;;;;2.13;1.10;;;;;;;;;;5037704;28;20186;-41
2022/07/09 01:19:28;;;;;;;4.23;1.50;;;;;;;;;;5049902;28;20213;-41
2022/07/09 01:21:54;;;;;;;4.20;1.40;;;;;;;;;;5053459;28;20175;-40
2022/07/09 01:24:21;;;;;;;2.03;1.23;;;;;;;;;;5055842;28;20178;-40
2022/07/09 01:26:48;;;;;;;1.87;1.07;;;;;;;;;;5054636;28;20275;-40
2022/07/09 01:29:14;;;;;;;4.33;1.40;;;;;;;;;;5044205;28;20182;-41
2022/07/09 01:31:40;;;;;;;1.90;1.63;;;;;;;;;;5045013;28;20179;-41
2022/07/09 01:34:06;;;;;;;2.57;1.40;;;;;;;;;;5048870;28;20495;-41
2022/07/09 01:36:33;;;;;;;4.87;1.30;;;;;;;;;;5048951;28;20185;-40
2022/07/09 01:38:59;;;;;;;3.67;1.40;;;;;;;;;;5045452;28;20175;-41
2022/07/09 01:41:25;;;;;;;4.00;1.20;;;;;;;;;;5052627;28;20177;-41
2022/07/09 01:43:52;;;;;;;1.97;1.20;;;;;;;;;;5048134;28;20414;-41
2022/07/09 01:46:18;;;;;;;1.70;1.20;;;;;;;;;;5044396;28;20242;-40
2022/07/09 01:48:44;;;;;;;3.00;1.10;;;;;;;;;;5051438;28;20167;-41
2022/07/09 01:51:10;;;;;;;3.20;1.30;;;;;;;;;;5051472;28;20217;-41
2022/07/09 01:53:37;;;;;;;1.53;1.20;;;;;;;;;;5053483;28;20791;-41
2022/07/09 01:56:07;;;;;;;3.57;1.40;;;;;;;;;;5048266;28;20194;-41
2022/07/09 01:58:33;;;;;;;1.73;1.40;;;;;;;;;;5051812;28;20567;-42
2022/07/09 02:00:59;;;;;;;1.37;1.27;;;;;;;;;;5050542;28;20210;-41
2022/07/09 02:03:25;;;;;;;3.17;1.50;;;;;;;;;;5054711;28;20567;-41
2022/07/09 02:05:51;;;;;;;2.07;1.20;;;;;;;;;;5049289;28;20571;-41
2022/07/09 02:08:17;;;;;;;2.10;1.30;;;;;;;;;;5047683;28;20175;-41
2022/07/09 02:10:43;;;;;;;1.70;1.30;;;;;;;;;;5053619;28;20958;-40
2022/07/09 02:13:09;;;;;;;3.00;1.43;;;;;;;;;;5046768;28;20186;-41
2022/07/09 02:15:35;;;;;;;3.43;1.10;;;;;;;;;;5048197;28;20182;-41
2022/07/09 02:18:02;;;;;;;3.13;1.20;;;;;;;;;;5046659;28;20436;-41
2022/07/09 02:20:28;;;;;;;1.60;1.30;;;;;;;;;;5047216;28;20181;-41
2022/07/09 02:22:54;;;;;;;1.23;1.13;;;;;;;;;;5047099;28;20919;-41
2022/07/09 02:25:20;;;;;;;2.07;1.30;;;;;;;;;;5038806;28;20186;-41
2022/07/09 02:27:46;;;;;;;2.60;1.10;;;;;;;;;;5044852;28;20210;-41
2022/07/09 02:30:13;;;;;;;1.70;0.90;;;;;;;;;;5043827;28;20171;-42
2022/07/09 02:32:39;;;;;;;2.00;1.00;;;;;;;;;;5047700;28;20473;-42
2022/07/09 02:35:06;;;;;;;1.10;1.00;;;;;;;;;;5049804;28;20209;-42
2022/07/09 02:37:32;;;;;;;1.30;1.10;;;;;;;;;;5046811;28;20951;-41
2022/07/09 02:39:58;;;;;;;1.37;0.93;;;;;;;;;;5049930;28;20194;-41
2022/07/09 02:42:24;;;;;;;2.37;1.10;;;;;;;;;;5050711;28;20598;-42
2022/07/09 02:44:50;;;;;;;2.10;1.30;;;;;;;;;;5056573;28;20720;-42
2022/07/09 02:47:16;;;;;;;4.57;1.30;;;;;;;;;;5050648;28;20174;-44
2022/07/09 02:49:42;;;;;;;2.20;1.27;;;;;;;;;;5042230;28;20206;-41
2022/07/09 02:52:09;;;;;;;1.10;1.00;;;;;;;;;;5047497;28;20225;-42
2022/07/09 02:54:35;;;;;;;2.50;1.27;;;;;;;;;;5056164;28;20745;-42
2022/07/09 02:57:01;;;;;;;4.10;1.30;;;;;;;;;;5056101;28;20543;-42
2022/07/09 02:59:27;;;;;;;1.00;0.90;;;;;;;;;;5055222;28;20252;-42
2022/07/09 03:01:53;;;;;;;3.23;1.10;;;;;;;;;;5053203;28;20547;-41
2022/07/09 03:04:19;;;;;;;2.13;1.20;;;;;;;;;;5052863;28;20225;-42
2022/07/09 03:06:46;;;;;;;3.70;1.10;;;;;;;;;;5052193;28;20320;-41
2022/07/09 03:09:12;;;;;;;2.00;1.13;;;;;;;;;;5046010;28;20174;-41
2022/07/09 03:11:39;;;;;;;4.20;1.23;;;;;;;;;;5048496;28;20182;-41
2022/07/09 03:14:05;;;;;;;1.00;0.90;;;;;;;;;;5048207;28;20200;-41
2022/07/09 03:16:31;;;;;;;0.97;0.93;;;;;;;;;;5050636;28;20644;-41
2022/07/09 03:18:57;;;;;;;1.33;1.10;;;;;;;;;;5042298;28;20562;-40
2022/07/09 03:21:23;;;;;;;1.23;1.10;;;;;;;;;;5046460;28;20636;-40
2022/07/09 03:23:49;;;;;;;1.17;1.07;;;;;;;;;;5044898;28;20179;-41
2022/07/09 03:26:15;;;;;;;2.67;1.23;;;;;;;;;;5043922;28;20210;-40
2022/07/09 03:28:41;;;;;;;1.73;1.10;;;;;;;;;;5050809;28;20175;-40
2022/07/09 03:31:07;;;;;;;1.23;1.07;;;;;;;;;;5047021;28;20663;-41
2022/07/09 03:33:33;;;;;;;1.50;0.93;;;;;;;;;;5051888;28;20179;-42
2022/07/09 03:35:59;;;;;;;1.40;1.10;;;;;;;;;;5049109;28;21279;-40
2022/07/09 03:38:25;;;;;;;1.40;1.30;;;;;;;;;;5052772;28;20478;-41
2022/07/09 03:40:52;;;;;;;1.10;1.00;;;;;;;;;;5054478;28;20183;-41
2022/07/09 03:43:18;;;;;;;2.73;1.20;;;;;;;;;;5051204;28;20306;-41
2022/07/09 03:45:44;;;;;;;4.00;1.10;;;;;;;;;;5052154;28;20906;-41
2022/07/09 03:48:11;;;;;;;1.93;1.30;;;;;;;;;;5047659;28;20205;-42
2022/07/09 03:50:37;;;;;;;4.33;1.20;;;;;;;;;;5048800;28;20175;-41
2022/07/09 03:53:03;;;;;;;1.60;1.13;;;;;;;;;;5044220;28;20396;-44
2022/07/09 03:55:29;;;;;;;3.30;1.77;;;;;;;;;;5049348;28;20419;-41
2022/07/09 03:57:55;;;;;;;2.00;1.37;;;;;;;;;;5048149;28;21017;-41
2022/07/09 04:00:21;;;;;;;3.43;1.30;;;;;;;;;;5042813;28;20171;-42
2022/07/09 04:02:48;;;;;;;1.43;1.30;;;;;;;;;;5044827;28;20497;-42
2022/07/09 04:05:14;;;;;;;2.40;1.20;;;;;;;;;;5044698;28;20216;-41
2022/07/09 04:07:40;;;;;;;2.80;1.50;;;;;;;;;;5042645;28;20727;-41
2022/07/09 04:10:06;;;;;;;1.57;1.17;;;;;;;;;;5040739;28;20465;-41
2022/07/09 04:12:32;;;;;;;1.50;1.40;;;;;;;;;;5046849;28;20179;-41
2022/07/09 04:14:59;;;;;;;2.60;1.33;;;;;;;;;;5055808;28;20542;-41
2022/07/09 04:17:25;;;;;;;2.10;1.37;;;;;;;;;;5062354;28;20530;-40
2022/07/09 04:19:51;;;;;;;1.53;1.20;;;;;;;;;;5062920;28;20210;-41
2022/07/09 04:22:17;;;;;;;2.10;1.20;;;;;;;;;;5064219;28;20198;-41
2022/07/09 04:24:43;;;;;;;2.40;1.40;;;;;;;;;;5059619;28;20911;-42
2022/07/09 04:27:09;;;;;;;3.30;1.30;;;;;;;;;;5060650;28;20236;-42
2022/07/09 04:29:35;;;;;;;3.13;1.30;;;;;;;;;;5063662;28;20543;-41
2022/07/09 04:32:01;;;;;;;2.80;1.47;;;;;;;;;;5050700;28;20225;-41
2022/07/09 04:34:27;;;;;;;2.13;1.33;;;;;;;;;;5041021;28;20201;-41
2022/07/09 04:36:53;;;;;;;3.47;1.47;;;;;;;;;;5042973;28;20264;-41
2022/07/09 04:39:20;;;;;;;2.30;1.30;;;;;;;;;;5041039;28;20278;-42
2022/07/09 04:41:46;;;;;;;3.87;1.40;;;;;;;;;;5049683;28;20388;-41
2022/07/09 04:44:15;;;;;;;1.83;1.37;;;;;;;;;;5045814;28;20687;-42
2022/07/09 04:46:41;;;;;;;2.43;1.43;;;;;;;;;;5042398;28;20303;-41
2022/07/09 04:49:07;;;;;;;2.63;1.20;;;;;;;;;;5047589;28;20167;-42
2022/07/09 04:51:33;;;;;;;3.17;1.27;;;;;;;;;;5050004;28;20171;-41
2022/07/09 04:53:59;;;;;;;3.17;1.20;;;;;;;;;;5054529;28;20844;-42
2022/07/09 04:56:26;;;;;;;2.23;1.20;;;;;;;;;;5055661;28;20179;-42
2022/07/09 04:58:52;;;;;;;1.43;1.03;;;;;;;;;;5053680;28;20194;-42
2022/07/09 05:01:19;;;;;;;1.30;1.20;;;;;;;;;;5048077;28;20175;-42
2022/07/09 05:03:46;;;;;;;2.70;1.40;;;;;;;;;;5052586;28;20199;-41
2022/07/09 05:06:14;;;;;;;1.43;1.20;;;;;;;;;;5047978;28;20292;-40
2022/07/09 05:08:40;;;;;;;1.23;1.17;;;;;;;;;;5049102;28;20637;-40
2022/07/09 05:11:06;;;;;;;2.03;1.17;;;;;;;;;;5050306;28;20190;-41
2022/07/09 05:13:32;;;;;;;3.93;1.50;;;;;;;;;;5044630;28;20563;-41
2022/07/09 05:15:58;;;;;;;1.30;1.20;;;;;;;;;;5039952;28;20248;-43
2022/07/09 05:18:24;;;;;;;2.30;1.23;;;;;;;;;;5044639;28;21224;-39
2022/07/09 05:20:50;;;;;;;2.00;1.10;;;;;;;;;;5047448;28;20186;-41
2022/07/09 05:23:16;;;;;;;2.43;1.70;;;;;;;;;;5045693;28;20218;-43
2022/07/09 05:25:43;;;;;;;2.10;1.03;;;;;;;;;;5043871;28;20198;-43
2022/07/09 05:28:09;;;;;;;2.10;1.37;;;;;;;;;;5049020;28;20174;-43
2022/07/09 05:30:37;;;;;;;2.50;1.43;;;;;;;;;;5048417;28;20203;-43
2022/07/09 05:33:06;;;;;;;2.23;1.00;;;;;;;;;;5045948;28;20298;-41
2022/07/09 05:35:33;;;;;;;2.60;1.13;;;;;;;;;;5065660;27;20441;-41
2022/07/09 05:37:59;;;;;;;1.50;1.10;;;;;;;;;;5043894;28;20186;-41
2022/07/09 05:40:25;;;;;;;2.13;1.03;;;;;;;;;;5045509;28;20241;-40
2022/07/09 05:42:52;;;;;;;1.20;1.10;;;;;;;;;;5045199;28;20190;-40
2022/07/09 05:45:18;;;;;;;3.50;1.10;;;;;;;;;;5042556;28;20200;-40
2022/07/09 05:47:44;;;;;;;0.97;0.90;;;;;;;;;;5039264;28;20502;-41
2022/07/09 05:50:10;;;;;;;2.33;1.20;;;;;;;;;;5035685;28;20256;-41
2022/07/09 05:52:37;;;;;;;3.37;1.13;;;;;;;;;;5039016;28;20706;-43
2022/07/09 05:55:03;;;;;;;2.77;1.10;;;;;;;;;;5044412;28;20187;-43
2022/07/09 05:57:29;;;;;;;1.80;1.20;;;;;;;;;;5043837;28;26354;-43
2022/07/09 05:59:55;;;;;;;1.67;1.00;;;;;;;;;;5051711;28;20492;-43
2022/07/09 06:02:22;;;;;;;2.23;1.30;;;;;;;;;;5043914;28;20207;-43
2022/07/09 06:04:48;;;;;;;1.60;1.30;;;;;;;;;;5042452;28;20753;-43
2022/07/09 06:07:15;;;;;;;1.70;1.20;;;;;;;;;;5041643;28;21194;-43
2022/07/09 06:09:41;;;;;;;3.53;1.30;;;;;;;;;;5036748;28;20742;-43
2022/07/09 06:12:07;;;;;;;3.30;1.00;;;;;;;;;;5038939;28;20170;-43
2022/07/09 06:14:33;;;;;;;2.90;1.17;;;;;;;;;;5043388;28;20533;-42
2022/07/09 06:17:05;;;;;;;3.83;1.13;;;;;;;;;;5042666;28;20182;-44
2022/07/09 06:19:32;;;;;;;3.00;1.20;;;;;;;;;;5035783;28;21611;-42
2022/07/09 06:21:58;;;;;;;3.07;1.23;;;;;;;;;;5045352;28;20170;-41
2022/07/09 06:24:24;;;;;;;1.30;1.20;;;;;;;;;;5046552;28;20172;-41
2022/07/09 06:26:50;;;;;;;4.67;1.40;;;;;;;;;;5045294;28;20390;-41
2022/07/09 06:29:16;;;;;;;2.97;1.20;;;;;;;;;;5030214;28;20491;-40
2022/07/09 06:31:42;;;;;;;2.87;1.20;;;;;;;;;;5046549;28;20175;-42
2022/07/09 06:34:10;;;;;;;2.53;1.20;;;;;;;;;;5042098;28;20167;-41
2022/07/09 06:36:36;;;;;;;4.80;1.20;;;;;;;;;;5047115;28;20252;-41
2022/07/09 06:41:47;;;;;;;5.90;1.07;;;;;;;;;;5038963;28;20580;-42
2022/07/09 06:44:14;;;;;;;3.07;1.10;;;;;;;;;;5039617;28;20264;-44
2022/07/09 06:46:40;;;;;;;1.30;0.90;;;;;;;;;;5043411;28;20206;-42
2022/07/09 06:49:06;;;;;;;3.33;1.40;;;;;;;;;;5045877;28;20185;-42
2022/07/09 06:51:32;;;;;;;2.60;1.00;;;;;;;;;;5046765;28;20687;-42
2022/07/09 06:53:58;;;;;;;0.80;0.80;;;;;;;;;;5053880;28;20305;-43
2022/07/09 06:56:25;;;;;;;2.50;0.97;;;;;;;;;;5046875;28;20174;-43
2022/07/09 06:58:51;;;;;;;1.77;1.10;;;;;;;;;;5044872;28;20179;-43
2022/07/09 07:01:17;;;;;;;4.53;1.30;;;;;;;;;;5046086;28;20183;-43
2022/07/09 07:03:43;;;;;;;3.10;1.03;;;;;;;;;;5034792;28;20171;-42
2022/07/09 07:06:09;;;;;;;4.50;1.20;;;;;;;;;;5043097;28;20425;-43
2022/07/09 07:08:35;;;;;;;3.00;1.00;;;;;;;;;;5041257;28;20171;-41
2022/07/09 07:11:01;;;;;;;2.90;0.90;;;;;;;;;;5044476;28;20483;-44
2022/07/09 07:13:27;;;;;;;5.40;1.20;;;;;;;;;;5042448;28;20401;-42
2022/07/09 07:15:54;;;;;;;3.67;0.97;;;;;;;;;;5043459;28;20186;-42
2022/07/09 07:18:20;;;;;;;3.83;1.00;;;;;;;;;;5034895;28;20321;-43
2022/07/09 07:20:46;;;;;;;6.40;1.20;;;;;;;;;;5045119;28;20179;-43
2022/07/09 07:23:12;;;;;;;2.60;0.97;;;;;;;;;;5040876;28;20183;-43
2022/07/09 07:25:38;;;;;;;3.70;0.93;;;;;;;;;;5028122;28;20201;-43
2022/07/09 07:28:05;;;;;;;2.33;1.20;;;;;;;;;;5037426;28;20544;-42
2022/07/09 07:30:32;;;;;;;10.10;1.60;;;;;;;;;;5047063;28;20179;-43
2022/07/09 07:33:01;;;;;;;4.27;0.80;;;;;;;;;;5046327;28;20290;-42
2022/07/09 07:35:27;;;;;;;3.33;1.00;;;;;;;;;;5047874;28;20285;-43
2022/07/09 07:37:54;;;;;;;2.30;0.93;;;;;;;;;;5049796;28;20584;-43
2022/07/09 07:40:20;;;;;;;3.10;1.00;;;;;;;;;;5049403;28;20292;-43
2022/07/09 07:42:46;;;;;;;2.33;1.00;;;;;;;;;;5041615;28;21259;-42
2022/07/09 07:45:12;;;;;;;3.17;0.97;;;;;;;;;;5044282;28;20256;-43
2022/07/09 07:47:38;;;;;;;3.97;1.00;;;;;;;;;;5042418;28;20690;-43
2022/07/09 07:50:05;;;;;;;1.50;0.90;;;;;;;;;;5039625;28;20186;-44
2022/07/09 07:52:32;;;;;;;3.70;0.97;;;;;;;;;;5042688;28;20893;-42
2022/07/09 07:54:58;;;;;;;1.37;0.87;;;;;;;;;;5036863;28;20285;-44
2022/07/09 07:57:24;;;;;;;2.67;0.93;;;;;;;;;;5041574;28;20910;-42
2022/07/09 07:59:50;;;;;;;5.13;1.17;;;;;;;;;;5045393;28;20214;-44
2022/07/09 08:02:16;;;;;;;2.17;0.93;;;;;;;;;;5040528;28;20186;-41
2022/07/09 08:04:42;;;;;;;4.33;1.00;;;;;;;;;;5043880;28;20179;-42
2022/07/09 08:07:08;;;;;;;5.47;1.30;;;;;;;;;;5044793;28;20179;-42
2022/07/09 08:09:35;;;;;;;2.73;0.97;;;;;;;;;;5039083;28;20291;-42
2022/07/09 08:12:01;;;;;;;4.77;1.03;;;;;;;;;;5047560;28;20202;-42
2022/07/09 08:14:27;;;;;;;2.40;1.10;;;;;;;;;;5047853;28;20175;-42
2022/07/09 08:16:53;;;;;;;2.57;1.30;;;;;;;;;;5044699;28;20261;-41
2022/07/09 08:19:19;;;;;;;4.13;0.93;;;;;;;;;;5054267;28;20204;-41
2022/07/09 08:21:45;;;;;;;7.57;1.80;;;;;;;;;;5052757;28;20263;-42
2022/07/09 08:24:11;;;;;;;6.33;1.23;;;;;;;;;;5047324;28;20186;-44
2022/07/09 08:26:37;;;;;;;4.53;1.30;;;;;;;;;;5050621;28;20897;-41
2022/07/09 08:29:04;;;;;;;3.63;1.20;;;;;;;;;;5049472;28;20182;-42
2022/07/09 08:31:30;;;;;;;3.00;1.00;;;;;;;;;;5048554;28;20267;-40
2022/07/09 08:33:56;;;;;;;4.30;1.10;;;;;;;;;;5050756;28;20292;-42
2022/07/09 08:36:22;;;;;;;5.37;1.50;;;;;;;;;;5051012;28;20265;-42
2022/07/09 08:38:49;;;;;;;3.27;1.13;;;;;;;;;;5043992;28;20596;-42
2022/07/09 08:41:19;;;;;;;3.40;1.03;;;;;;;;;;5051242;28;20204;-42
2022/07/09 08:43:48;;;;;;;3.40;1.40;;;;;;;;;;5048147;28;20187;-42
2022/07/09 08:46:15;;;;;;;3.50;1.10;;;;;;;;;;5045386;28;20682;-41
2022/07/09 08:48:43;;;;;;;3.60;1.30;;;;;;;;;;5049125;28;20171;-42
2022/07/09 08:51:10;;;;;;;3.40;1.23;;;;;;;;;;5047142;28;20913;-43
2022/07/09 08:53:40;;;;;;;2.93;1.30;;;;;;;;;;5049906;28;20183;-42
2022/07/09 08:56:06;;;;;;;4.03;1.10;;;;;;;;;;5051779;28;20190;-43
2022/07/09 08:58:32;;;;;;;4.23;1.13;;;;;;;;;;5045278;28;20183;-41
2022/07/09 09:00:58;;;;;;;4.20;1.40;;;;;;;;;;5040225;28;20189;-43
2022/07/09 09:03:25;;;;;;;3.37;1.10;;;;;;;;;;5045785;28;20294;-41
2022/07/09 09:06:08;;;;;;;3.73;1.30;;;;;;;;;;5048345;28;20706;-43
2022/07/09 09:08:41;;;;;;;3.27;1.03;;;;;;;;;;5048861;28;20288;-41
2022/07/09 09:11:08;;;;;;;3.87;1.40;;;;;;;;;;5045888;28;20253;-43
2022/07/09 09:13:41;;;;;;;2.90;1.03;;;;;;;;;;5049246;28;20273;-42
2022/07/09 09:16:08;;;;;;;4.20;1.27;;;;;;;;;;5052717;28;20287;-43
2022/07/09 09:18:35;;;;;;;3.60;1.00;;;;;;;;;;5047536;28;20644;-43
2022/07/09 09:21:03;;;;;;;2.47;1.00;;;;;;;;;;5046930;28;20180;-43
2022/07/09 09:23:29;;;;;;;3.07;1.10;;;;;;;;;;5053191;28;20190;-42
2022/07/09 09:25:55;;;;;;;3.17;1.03;;;;;;;;;;5049374;28;20206;-41
2022/07/09 09:28:21;;;;;;;6.23;1.20;;;;;;;;;;5048372;28;20177;-42
2022/07/09 09:30:47;;;;;;;2.27;1.00;;;;;;;;;;5053263;28;21165;-41
2022/07/09 09:33:18;;;;;;;3.87;1.10;;;;;;;;;;5051761;28;20180;-42
2022/07/09 09:35:45;;;;;;;1.93;1.07;;;;;;;;;;5049689;28;20289;-43
2022/07/09 09:38:11;;;;;;;3.60;1.20;;;;;;;;;;5047311;28;20216;-43
2022/07/09 09:40:37;;;;;;;3.93;1.20;;;;;;;;;;5048513;28;20167;-43
2022/07/09 09:43:04;;;;;;;3.87;1.20;;;;;;;;;;5045961;28;20205;-43
2022/07/09 09:45:30;;;;;;;4.77;1.17;;;;;;;;;;5048707;28;20201;-42
2022/07/09 09:48:00;;;;;;;4.27;1.17;;;;;;;;;;5055525;28;20278;-43
2022/07/09 09:50:26;;;;;;;6.27;1.47;;;;;;;;;;5048359;28;20297;-43
2022/07/09 09:52:54;;;;;;;4.03;1.10;;;;;;;;;;5051071;28;20177;-42
2022/07/09 09:55:21;;;;;;;3.33;1.10;;;;;;;;;;5052254;28;20186;-43
2022/07/09 09:57:48;;;;;;;3.23;1.40;;;;;;;;;;5040900;28;20183;-43
2022/07/09 10:00:15;;;;;;;4.37;0.90;;;;;;;;;;5044510;28;21024;-44
2022/07/09 10:02:46;;;;;;;2.13;0.90;;;;;;;;;;5052350;28;20207;-43
2022/07/09 10:05:13;;;;;;;4.60;0.90;;;;;;;;;;5047553;28;20233;-43
2022/07/09 10:07:40;;;;;;;4.43;1.07;;;;;;;;;;5051186;28;21099;-42
2022/07/09 10:10:06;;;;;;;2.43;1.10;;;;;;;;;;5049228;28;20256;-43
2022/07/09 10:12:36;;;;;;;3.47;1.07;;;;;;;;;;5046091;28;20186;-43
2022/07/09 10:15:03;;;;;;;6.87;1.30;;;;;;;;;;5050754;28;20332;-43
2022/07/09 10:17:39;;;;;;;2.17;0.93;;;;;;;;;;5051239;28;24714;-43
2022/07/09 10:20:06;;;;;;;5.00;1.03;;;;;;;;;;5050681;28;20179;-43
2022/07/09 10:22:40;;;;;;;2.67;1.20;;;;;;;;;;5047890;28;20183;-42
2022/07/09 10:25:07;;;;;;;4.23;1.10;;;;;;;;;;5051938;28;20193;-43
2022/07/09 10:27:43;;;;;;;2.53;1.10;;;;;;;;;;5050427;28;20166;-43
2022/07/09 10:30:09;;;;;;;2.97;1.17;;;;;;;;;;5047359;28;20179;-43
2022/07/09 10:32:42;;;;;;;2.23;1.00;;;;;;;;;;5053612;28;20174;-44
2022/07/09 10:35:08;;;;;;;3.00;1.30;;;;;;;;;;5052254;28;20177;-44
2022/07/09 10:37:34;;;;;;;3.63;1.30;;;;;;;;;;5045583;28;20226;-44
2022/07/09 10:40:10;;;;;;;3.73;1.40;;;;;;;;;;5048885;28;21095;-44
2022/07/09 10:42:36;;;;;;;1.83;1.00;;;;;;;;;;5046542;28;20234;-43
2022/07/09 10:45:04;;;;;;;1.47;0.90;;;;;;;;;;5047119;28;21027;-43
2022/07/09 10:47:39;;;;;;;2.93;1.00;;;;;;;;;;5048459;28;20175;-43
2022/07/09 10:50:05;;;;;;;2.50;1.07;;;;;;;;;;5044383;28;20166;-43
2022/07/09 10:52:31;;;;;;;1.83;0.80;;;;;;;;;;5049085;28;20175;-43
2022/07/09 10:54:57;;;;;;;2.10;0.87;;;;;;;;;;5046388;28;20259;-43
2022/07/09 10:57:24;;;;;;;1.20;0.87;;;;;;;;;;5045043;28;21123;-44
2022/07/09 10:59:50;;;;;;;2.60;0.83;;;;;;;;;;5045304;28;20182;-43
2022/07/09 11:02:20;;;;;;;2.47;1.00;;;;;;;;;;5049045;28;20956;-43
2022/07/09 11:04:50;;;;;;;1.73;1.00;;;;;;;;;;5048855;28;20171;-44
2022/07/09 11:07:21;;;;;;;4.10;0.90;;;;;;;;;;5041476;28;20178;-42
2022/07/09 11:09:47;;;;;;;3.20;1.10;;;;;;;;;;5034563;28;20903;-43
2022/07/09 11:12:21;;;;;;;3.10;1.13;;;;;;;;;;5042950;28;20179;-43
2022/07/09 11:14:51;;;;;;;4.73;1.10;;;;;;;;;;5042886;28;20213;-43
2022/07/09 11:17:21;;;;;;;3.17;1.10;;;;;;;;;;5046243;28;20190;-43
2022/07/09 11:19:49;;;;;;;2.93;1.20;;;;;;;;;;5040010;28;20290;-44
2022/07/09 11:22:16;;;;;;;3.23;1.00;;;;;;;;;;5038386;28;20163;-44
2022/07/09 11:24:42;;;;;;;2.30;1.33;;;;;;;;;;5039777;28;20234;-44
2022/07/09 11:27:09;;;;;;;11.47;2.10;;;;;;;;;;5044482;28;21100;-43
2022/07/09 11:29:36;;;;;;;1.87;1.00;;;;;;;;;;5039621;28;20414;-44
2022/07/09 11:32:03;;;;;;;3.33;1.10;;;;;;;;;;5039181;28;20175;-44
2022/07/09 11:34:29;;;;;;;3.43;1.10;;;;;;;;;;5037480;28;20289;-44
2022/07/09 11:36:59;;;;;;;3.23;1.00;;;;;;;;;;5042234;28;20190;-42
2022/07/09 11:39:48;;;;;;;3.20;1.30;;;;;;;;;;5038565;28;20183;-43
2022/07/09 11:42:17;;;;;;;2.90;1.20;;;;;;;;;;5040643;28;20359;-43
2022/07/09 11:44:53;;;;;;;1.70;0.80;;;;;;;;;;5047406;28;20191;-44
2022/07/09 11:47:22;;;;;;;3.57;1.20;;;;;;;;;;5043697;28;20944;-43
2022/07/09 11:49:50;;;;;;;1.80;0.97;;;;;;;;;;5042505;28;20174;-43
2022/07/09 11:52:24;;;;;;;2.73;0.90;;;;;;;;;;5048173;28;20179;-44
2022/07/09 11:55:00;;;;;;;2.63;1.30;;;;;;;;;;5051041;28;20981;-44
2022/07/09 11:57:27;;;;;;;1.37;1.10;;;;;;;;;;5047495;28;20213;-44
2022/07/09 11:59:53;;;;;;;1.70;1.03;;;;;;;;;;5048383;28;20175;-44
2022/07/09 12:02:27;;;;;;;2.63;1.03;;;;;;;;;;5054736;28;20781;-44
2022/07/09 12:04:53;;;;;;;1.93;1.00;;;;;;;;;;5051700;28;20278;-44
2022/07/09 12:07:19;;;;;;;2.83;1.07;;;;;;;;;;5054001;28;20622;-44
2022/07/09 12:09:45;;;;;;;1.93;0.90;;;;;;;;;;5047830;28;20233;-44
2022/07/09 12:12:11;;;;;;;4.10;1.10;;;;;;;;;;5051177;28;20206;-43
2022/07/09 12:14:37;;;;;;;2.07;1.00;;;;;;;;;;5052009;28;20182;-44
2022/07/09 12:17:04;;;;;;;3.77;1.00;;;;;;;;;;5051605;28;20183;-44
2022/07/09 12:19:30;;;;;;;2.30;1.00;;;;;;;;;;5052159;28;20540;-44
2022/07/09 12:21:56;;;;;;;1.63;0.90;;;;;;;;;;5053504;28;20299;-43
2022/07/09 12:24:22;;;;;;;1.47;1.00;;;;;;;;;;5052711;28;20382;-44
2022/07/09 12:26:48;;;;;;;6.07;1.10;;;;;;;;;;5052297;28;20202;-44
2022/07/09 12:29:14;;;;;;;1.73;0.80;;;;;;;;;;5054610;28;20166;-44
2022/07/09 12:31:40;;;;;;;2.60;0.87;;;;;;;;;;5052426;28;20819;-44
2022/07/09 12:34:06;;;;;;;2.60;1.03;;;;;;;;;;5050485;28;20175;-44
2022/07/09 12:36:33;;;;;;;1.20;1.00;;;;;;;;;;5056838;28;20443;-44
2022/07/09 12:38:59;;;;;;;2.97;0.90;;;;;;;;;;5050633;28;20293;-44
2022/07/09 12:41:25;;;;;;;2.33;1.20;;;;;;;;;;5053896;28;20178;-44
2022/07/09 12:43:52;;;;;;;3.03;1.20;;;;;;;;;;5056148;28;20585;-44
2022/07/09 12:46:18;;;;;;;1.97;0.93;;;;;;;;;;5053149;28;20204;-44
2022/07/09 12:48:44;;;;;;;1.87;1.10;;;;;;;;;;5054412;28;20320;-44
2022/07/09 12:51:10;;;;;;;2.27;0.83;;;;;;;;;;5059281;28;20167;-44
2022/07/09 12:53:36;;;;;;;2.93;1.20;;;;;;;;;;5052743;28;20179;-44
2022/07/09 12:56:02;;;;;;;2.80;0.83;;;;;;;;;;5056966;28;20210;-42
2022/07/09 12:58:28;;;;;;;2.50;0.90;;;;;;;;;;5061019;28;20233;-44
2022/07/09 13:00:54;;;;;;;1.93;1.00;;;;;;;;;;5054007;28;20179;-44
2022/07/09 13:03:20;;;;;;;1.50;1.10;;;;;;;;;;5055667;28;21285;-44
2022/07/09 13:05:47;;;;;;;1.87;0.97;;;;;;;;;;5056008;28;20203;-44
2022/07/09 13:08:13;;;;;;;2.93;1.07;;;;;;;;;;5050834;28;20543;-42
2022/07/09 13:10:39;;;;;;;1.63;0.80;;;;;;;;;;5051249;28;20175;-41
2022/07/09 13:13:05;;;;;;;0.83;0.67;;;;;;;;;;5053439;28;20183;-42
2022/07/09 13:15:31;;;;;;;1.93;1.00;;;;;;;;;;5052208;28;20174;-42
2022/07/09 13:17:57;;;;;;;1.07;0.83;;;;;;;;;;5052534;28;20501;-41
2022/07/09 13:20:23;;;;;;;1.60;0.90;;;;;;;;;;5056251;28;20541;-43
2022/07/09 13:22:49;;;;;;;4.17;1.00;;;;;;;;;;5051315;28;20597;-42
2022/07/09 13:25:15;;;;;;;1.70;0.97;;;;;;;;;;5049414;28;20208;-43
2022/07/09 13:27:42;;;;;;;4.13;1.10;;;;;;;;;;5046471;28;20404;-43
2022/07/09 13:30:08;;;;;;;4.33;1.10;;;;;;;;;;5047920;28;20186;-43
2022/07/09 13:32:34;;;;;;;1.10;0.90;;;;;;;;;;5047795;28;20212;-43
2022/07/09 13:35:00;;;;;;;1.33;0.90;;;;;;;;;;5045051;28;20273;-43
2022/07/09 13:37:26;;;;;;;1.63;0.90;;;;;;;;;;5043936;28;20192;-43
2022/07/09 13:39:53;;;;;;;2.07;1.17;;;;;;;;;;5046883;28;20690;-43
2022/07/09 13:42:19;;;;;;;3.20;1.00;;;;;;;;;;5039454;28;20177;-42
2022/07/09 13:44:45;;;;;;;2.53;1.20;;;;;;;;;;5044615;28;20188;-43
2022/07/09 13:47:11;;;;;;;1.10;0.90;;;;;;;;;;5045330;28;20909;-43
2022/07/09 13:49:37;;;;;;;3.10;1.00;;;;;;;;;;5042089;28;20240;-42
2022/07/09 13:52:05;;;;;;;1.10;1.00;;;;;;;;;;5037139;28;20189;-42
2022/07/09 13:54:31;;;;;;;7.03;1.40;;;;;;;;;;5037821;28;20233;-44
2022/07/09 13:56:58;;;;;;;3.23;1.10;;;;;;;;;;5039698;28;20188;-43
2022/07/09 13:59:24;;;;;;;3.97;1.20;;;;;;;;;;5039143;28;20186;-43
2022/07/09 14:01:50;;;;;;;3.47;1.10;;;;;;;;;;5039839;28;20186;-43
2022/07/09 14:04:16;;;;;;;2.07;1.00;;;;;;;;;;5038610;28;20174;-44
2022/07/09 14:06:42;;;;;;;2.00;0.90;;;;;;;;;;5042854;28;21048;-43
2022/07/09 14:09:09;;;;;;;2.97;1.20;;;;;;;;;;5036695;28;20175;-43
2022/07/09 14:11:35;;;;;;;1.20;1.10;;;;;;;;;;5036095;28;20287;-43
2022/07/09 14:14:01;;;;;;;4.43;1.40;;;;;;;;;;5038617;28;21016;-43
2022/07/09 14:16:27;;;;;;;2.40;1.10;;;;;;;;;;5040625;28;20190;-43
2022/07/09 14:18:54;;;;;;;3.30;1.10;;;;;;;;;;5033791;28;20846;-43
2022/07/09 14:21:20;;;;;;;1.63;0.90;;;;;;;;;;5035297;28;20185;-41
2022/07/09 14:23:48;;;;;;;3.30;1.17;;;;;;;;;;5034684;28;21165;-42
2022/07/09 14:26:17;;;;;;;2.30;0.70;;;;;;;;;;5034693;28;20209;-42
2022/07/09 14:28:43;;;;;;;2.57;1.07;;;;;;;;;;5032038;28;22186;-42
2022/07/09 14:31:09;;;;;;;2.47;1.00;;;;;;;;;;5041441;28;21114;-41
2022/07/09 14:33:35;;;;;;;3.27;1.10;;;;;;;;;;5038722;28;21177;-42
2022/07/09 14:36:01;;;;;;;2.53;1.20;;;;;;;;;;5037458;28;20179;-42
2022/07/09 14:38:27;;;;;;;3.20;1.20;;;;;;;;;;5035541;28;21210;-40
2022/07/09 14:40:53;;;;;;;1.73;1.10;;;;;;;;;;5032572;28;20181;-42
2022/07/09 14:43:19;;;;;;;2.17;0.90;;;;;;;;;;5044286;28;20198;-42